Extreme weather reports worldwide

Atmospheric pressure

Low pressure

Station
 
Location
 
Name
 
Wind
Knots
Gust
Knots
Vis
SM
Temp/Dew
C
Baro
inHg
METAR
 
NZCM 0 -12/-18 29.06 NZCM 050255Z 00000KT 9999 BKN034 M13/M19 A2906 RMK AO2 SLP847 T11291187 57015
SNN EINN Shannon, IE Shannon Airport 32 48 2.17 6/5 29.38 EINN 050330Z 21032G48KT 3500 RA FEW012 BKN015 BKN020 06/05 Q0995 NOSIG
UAK BGBW Narsarsuaq, GL Narsarsuaq Airport 4 -9/-15 29.38 BGBW 050250Z AUTO 08004KT 9999NDV BKN150/// M09/M15 Q0995
PKC UHPP Petropavlovsk-Kamchatsky, RU Yelizovo Airport 2 0/-13 29.41 UHPP 050330Z VRB01MPS 9999 FEW050 M00/M13 Q0996 R34L/CLRD60 NOSIG RMK QFE743/0991
PVS UHMD Chukotka, RU Provideniya Bay Airport 12 -4/-7 29.41 UHMD 050330Z 35006MPS 9999 -SN FEW016 OVC028 M04/M07 Q0996 RMK QBB500 MT OBSC QFE746/0995

Station
 
Location
 
Name
 
Wind
Knots
Gust
Knots
Vis
SM
Temp/Dew
C
Baro
inHg
METAR
 
SVA PASA Savoonga, US Savoonga Airport 13 0.75 -2/-2 29.41 PASA 050327Z AUTO 08013KT 3/4SM -SN BR BKN006 OVC014 M02/M02 A2941 RMK AO2 CIG 004V008 P0000 FZRANO
DYR UHMA Anadyr, RU Ugolny Airport 21 3.73 -11/-14 29.44 UHMA 050330Z 04011MPS 6000 2900N -SN BLSN SCT008 SCT036 BKN050 M11/M14 Q0997 R02/420560 NOSIG RMK MID 04010G13MPS END R02/04011G14MPS QFE744/0992
CZF PACZ Cape Romanzof, US Cape Romanzof LRRS Airport 23 32 2.5 -2/-3 29.47 PACZ 050333Z AUTO 18023G32KT 2 1/2SM -FZDZ BR OVC006 M02/M03 A2947 RMK AO2 SLP988
SGC USRR Surgut, RU Surgut Airport 10 -9/-10 29.47 USRR 050330Z 30005MPS 9999 -SHSN SCT034CB M09/M10 Q0998 R25/450535 NOSIG RMK OBST OBSC QFE743
NJC USNN Nizhnevartovsk, RU Nizhnevartovsk Airport 14 2.17 -1/-2 29.47 USNN 050330Z 21007MPS 3500 -SHSN BKN009 BKN020CB M01/M02 Q0998 R21/35//37 TEMPO 0800 +SHSN RMK QFE744
EIME Baldonnel, IE Casement Air Base 28 38 6/2 29.47 EIME 050300Z 19028G38KT 9999 FEW018 06/02 Q0998
KUS BGKK Kulusuk, GL Kulusuk Airport 20 0/-2 29.47 BGKK 050250Z AUTO 08020KT 9999NDV -SN SCT014/// OVC035/// M00/M02 Q0998
TRE EGPU Balemartine, GB Tiree Airport 28 7/5 29.50 EGPU 050320Z AUTO 11028KT 9999 BKN012/// 07/05 Q0999
BFS EGAA Belfast, GB Belfast International Airport 19 31 6/3 29.50 EGAA 050320Z AUTO 16019G31KT 9999 NCD 06/03 Q0999
SNP PASN St Paul Island, US St Paul Island Airport 9 3 0/-1 29.51 PASN 050259Z AUTO 20009KT 3SM -SN BR SCT020 SCT034 BKN065 01/M01 A2951 RMK AO2 P0000 T00061011 TSNO $
TNC PATC Tin City, US Tin City Long Range Radar Station Airport 4 8 -5/-6 29.53 PATC 050333Z AUTO 18004KT 8SM FEW006 BKN044 M05/M06 A2953 RMK AO2 SLP006
WLG NZWN Wellington, NZ Wellington International Airport 5 18 18/7 29.53 NZWN 050330Z AUTO 20005G18KT 040V010 9999 NCD 18/07 Q1000
CHC NZCH Christchurch, NZ Christchurch International Airport 17 15/3 29.53 NZCH 050330Z AUTO 18017KT 150V210 9999 OVC065/// 15/03 Q1000
DUB EIDW Dublin, IE Dublin Airport 17 6/2 29.53 EIDW 050330Z 17017KT 9999 FEW025 06/02 Q1000 NOSIG
KEF BIKF Reykjavík, IS Keflavik International Airport 25 7/4 29.53 BIKF 050330Z 11025KT 9999 BKN020 07/04 Q1000
BEB EGPL Balivanich, GB Benbecula Airport 21 8/3 29.53 EGPL 050320Z AUTO 13021KT 9999 OVC009/// 08/03 Q1000
BHD EGAC Belfast, GB George Best Belfast City Airport 12 8/3 29.53 EGAC 050320Z AUTO 17012KT 130V190 9999 BKN031 08/03 Q1000
RKV BIRK Reykjavik, IS Reykjavik Airport 21 32 7/3 29.53 BIRK 050300Z 12021G32KT 9999 SCT031 07/03 Q1000
MYU PAMY Mekoryuk, US Mekoryuk Airport 19 2 -1/-3 29.54 PAMY 050329Z AUTO 18019KT 2SM UP BR BKN018 M01/M03 A2954 RMK AO2 UPB04SNE04 P0000 FZRANO
STG PAPB St George, US St George Airport 18 0/-2 29.55 PAPB 050253Z AUTO 21018KT 10SM SCT110 00/M02 A2955 RMK AO2 PK WND 22026/0158 SLP995 T00001022 55001 TSNO $
ORK EICK Cork, IE Cork Airport 13 4.35 5/3 29.56 EICK 050330Z 25013KT 7000 -RA FEW016 BKN021 05/03 Q1001 TEMPO 4000
DRG PADE Deering, US Deering Airport 9 0.75 -2/-3 29.58 PADE 050335Z AUTO 16009KT 3/4SM -SN BR VV013 M02/M03 A2958 RMK AO2 P0000 T10221033 TSNO $
GDX UHMM Magadan, RU Sokol Airport 4 -7/-17 29.59 UHMM 050330Z 31002MPS 260V020 9999 NSC M07/M17 Q1002 R10/82//60 NOSIG RMK QFE737 R28/00000MPS
OME PAOM Nome, US Nome Airport 8 9 -3/-5 29.59 PAOM 050325Z 08008KT 9SM FEW038 BKN049 M03/M06 A2959 RMK AO2 T10331056 $
UTT FAUT Mthatha, ZA K. D. Matanzima Airport 3 19/17 29.59 FAUT 050300Z 27003KT 9999 BKN020 19/17 Q1002
DUR FALE Durban, ZA King Shaka International Airport 5 24/23 29.59 FALE 050300Z 06005KT CAVOK 24/23 Q1002 NOSIG
MOU PAMO Mountain Village, US Mountain Village Airport 19 0.75 / 29.60 PAMO 050330Z AUTO 14019KT 3/4SM -SN OVC004 A2960 RMK AO2 PK WND 14026/0320 RAB06E11 CIG 003V007 P0000 FZRANO $
OOK PAOO Toksook Bay, US Toksook Bay Airport 15 -2/-3 29.61 PAOO 050337Z AUTO 16015KT 10SM BKN019 M02/M03 A2961 RMK AO2 FZRANO TSNO $
HMA USHH Khanty-Mansiysk, RU Khanty Mansiysk Airport 6 1.68 -13/-16 29.62 USHH 050330Z 34003MPS 2700 -SHSN BKN015CB M13/M16 Q1003 R06/491033 TEMPO 0500 +SHSN BKN003CB
KQEY 5 6/3 29.62 KQEY 050330Z AUTO 05005KT 9999 BKN017 OVC046 06/03 A2962 RMK A02 TSNO
SYY EGPO Stornoway, GB Stornoway Airport 13 6/2 29.62 EGPO 050320Z AUTO 10013KT 9999 NCD 06/02 Q1003
KKA PAKK Koyuk, US Koyuk Alfred Adams Airport 7 7 -1/-2 29.62 PAKK 050256Z AUTO 21007KT 7SM -SN OVC004 M02/M02 A2962 RMK AO2 SNB31 SLP041 P0000 60000 T10171022 53012 FZRANO
SYA PASY Shemya, US Eareckson Air Station 12 7 2/0 29.62 PASY 050255Z AUTO 35012KT 7SM FEW028 SCT041 02/M00 A2962 RMK AO2 UPB14E33 PRESRR SLP034 P0000 60000 T00211005 53016 FZRANO $
IOM EGNS Castletown, IM Isle of Man Airport 18 8/5 29.62 EGNS 050250Z 17018KT 9999 SCT030 08/05 Q1003
GOH BGGH Nuuk, GL Godthaab / Nuuk Airport 8 -8/-13 29.62 BGGH 050250Z AUTO 03008KT 9999 BKN027/// OVC031/// M08/M13 Q1003
KSM PASM St Mary's, US St Mary's Airport 15 21 0.75 -2/-3 29.63 PASM 050333Z AUTO 14015G21KT 3/4SM -SN BR BKN007 OVC012 M02/M03 A2963 RMK AO2 CIG 006V011 P0000 FZRANO
OTZ PAOT Kotzebue, US Ralph Wien Memorial Airport 17 1 -8/-9 29.63 PAOT 050314Z 09017KT 1SM R09/P6000FT -SN BR OVC028 M09/M09 A2963 RMK AO2 P0000 T10891094
KVL PAVL Kivalina, US Kivalina Airport 12 2 -7/-8 29.64 PAVL 050333Z AUTO 09012KT 2SM -SN BR BKN042 OVC050 M07/M09 A2964 RMK AO2 P0000 T10721089 TSNO
WMO PAWM White Mountain, US White Mountain Airport 6 4 -3/-3 29.64 PAWM 050256Z AUTO 17006KT 4SM BR OVC004 M03/M03 A2964 RMK AO2 SLP042 T10331033 53014 FZRANO
BKC PABL Buckland, US Buckland Airport 14 4 -4/-5 29.65 PABL 050333Z AUTO 12014KT 4SM -SN BR FEW021 SCT026 OVC035 M04/M05 A2965 RMK AO2 P0000 FZRANO $
LIRK 14 24 -1/-1 29.65 LIRK 050331Z AUTO 09014G24KT //// M01/M01 Q1004
SKG LGTS Thessaloniki, GR Thessaloniki Macedonia International Airport 3 10/10 29.65 LGTS 050320Z VRB03KT 9999 FEW007 BKN025 10/10 Q1004 NOSIG
PIK EGPK Glasgow, GB Glasgow Prestwick Airport 13 6/4 29.65 EGPK 050320Z 12013KT 9999 -RA SCT040 06/04 Q1004
VLY EGOV Angelsey, GB Anglesey Airport 21 8/5 29.65 EGOV 050320Z AUTO 17021KT 9999 SCT018/// 08/05 Q1004
ELI PFEL Elim, US Elim Airport 5 8 -2/-4 29.65 PFEL 050256Z AUTO 21005KT 8SM OVC004 M03/M04 A2965 RMK AO2 SLP044 T10281044 53008 FZRANO

High pressure

Station
 
Location
 
Name
 
Wind
Knots
Gust
Knots
Vis
SM
Temp/Dew
C
Baro
inHg
METAR
 
LPB SLLP La Paz / El Alto, BO El Alto International Airport 4 2.49 7/7 30.71 SLLP 050300Z 12004KT 4000 RA FEW010 FEW017CB OVC070 07/07 Q1040
YJT CYJT Stephenville, CA Stephenville Airport 6 15 -8/-11 30.58 CYJT 050300Z 07006KT 15SM FEW150 FEW190 M08/M11 A3058 RMK AC1AC1 AC TR SLP358
YGR CYGR Îles-de-la-Madeleine, CA Îles-de-la-Madeleine Airport 2 15 -5/-8 30.57 CYGR 050300Z 17002KT 15SM SKC M05/M08 A3057 RMK LAST STFD OBS/051000Z SLP355
YQY CYQY Sydney, CA Sydney / J.A. Douglas McCurdy Airport 7 15 -4/-7 30.56 CYQY 050300Z 03007KT 15SM FEW250 M04/M07 A3056 RMK CI1 SLP354
YYG CYYG Charlottetown, CA Charlottetown Airport 0 14 -6/-7 30.56 CYYG 050300Z 00000KT 14SM SKC M06/M07 A3056 RMK SLP353

Station
 
Location
 
Name
 
Wind
Knots
Gust
Knots
Vis
SM
Temp/Dew
C
Baro
inHg
METAR
 
YDF CYDF Deer Lake, CA Deer Lake Airport 6 15 -7/-13 30.55 CYDF 050300Z 24006KT 15SM BKN130 M07/M13 A3055 RMK AC6 SLP349
YZX CYZX Greenwood, CA CFB Greenwood 5 15 -2/-4 30.55 CYZX 050300Z 04005KT 15SM SCT250 M02/M04 A3055 RMK CI3 DENSITY ALT -2601FT SLP346
CWSA 11 9 0/-2 30.54 CWSA 050300Z AUTO 07011KT 9SM FEW016 00/M02 A3054 RMK SLP343
YHZ CYHZ Halifax, CA Halifax / Stanfield International Airport 4 15 -3/-7 30.53 CYHZ 050300Z 14004KT 15SM SKC M03/M07 A3053 RMK SLP347
YPS CYPD Port Hawkesbury, CA Port Hawkesbury Airport 0 9 -5/-7 30.53 CYPD 050300Z AUTO 00000KT 9SM CLR M05/M07 A3053 RMK SLP347
KEM EFKE Kemi / Tornio, FI Kemi-Tornio Airport 3 -2/-2 30.53 EFKE 050320Z AUTO 26003KT 220V280 9999 -SHSN OVC002 M02/M02 Q1034
KAJ EFKI Kajaani, FI Kajaani Airport 2 -11/-12 30.53 EFKI 050320Z AUTO 09002KT 9999 -FZDZSN BKN001 M11/M12 Q1034
KOK EFKK Kokkola / Kruunupyy, FI Kokkola-Pietarsaari Airport 0 0/-3 30.53 EFKK 050320Z AUTO 00000KT 9999 OVC014 M00/M03 Q1034
KUO EFKU Kuopio / Siilinjärvi, FI Kuopio Airport 3 -8/-8 30.53 EFKU 050320Z AUTO 33003KT CAVOK M08/M08 Q1034
OUL EFOU Oulu / Oulunsalo, FI Oulu Airport 2 -7/-8 30.53 EFOU 050320Z AUTO 20002KT 9999 OVC002 M07/M08 Q1034
VAA EFVA Vaasa, FI Vaasa Airport 4 3.73 0/-1 30.53 EFVA 050320Z AUTO 11004KT 6000 -SN OVC006 M00/M01 Q1034
KRF ESNK Kramfors / Sollefteå, SE Kramfors Sollefteå Airport 0 1.99 0/0 30.53 ESNK 050320Z AUTO 00000KT 3200 DZ VV015 00/M00 Q1034
SFT ESNS Skellefteå, SE Skellefteå Airport 2 5.59 -1/-1 30.53 ESNS 050320Z AUTO 29002KT 9000 R10///// R28/P2000N -SN FEW007/// SCT009/// OVC014/// M01/M01 Q1034 RESG
UME ESNU Umeå, SE Umeå Airport 3 0/-2 30.53 ESNU 050320Z VRB03KT 9999 SCT007 OVC013 M00/M02 Q1034
LLA ESPA Luleå, SE Luleå Airport 4 -1/-1 30.53 ESPA 050320Z AUTO 22004KT 9999 OVC007/// M01/M01 Q1034
FSP LFVP Saint-Pierre, PM St Pierre Airport 7 -2/-6 30.53 LFVP 050330Z AUTO 30007KT CAVOK M02/M06 Q1034
YFC CYFC Fredericton, CA Fredericton Airport 2 9 -2/-5 30.52 CYFC 050300Z AUTO 04002KT 9SM BKN031 M02/M05 A3052 RMK SLP337
YQM CYQM Moncton, CA Greater Moncton Roméo LeBlanc International Airport 5 15 -6/-7 30.52 CYQM 050300Z 10005KT 15SM FEW260 M06/M07 A3052 RMK CI1 CI TR SLP340
BHB KBHB Bar Harbor, US Hancock County-Bar Harbor Airport 3 3/-1 30.51 KBHB 050256Z AUTO 11003KT 10SM OVC044 03/M01 A3051 RMK AO2 SLP333 T00331011 56003
CYCX Gagetown, CA CFB Gagetown Heliport 2 15 -2/-5 30.51 CYCX 050300Z 06002KT 15SM BKN032 M02/M05 A3051 RMK SC6 DENSITY ALT -2472FT SLP336
YQI CYQI Yarmouth, CA Yarmouth Airport 6 1/-3 30.51 CYQI 050300Z 12006KT 10SM SCT280 01/M03 A3051 RMK CI3 SLP336
YSJ CYSJ Saint John, CA Saint John Airport 3 15 -2/-6 30.51 CYSJ 050300Z 10003KT 050V190 15SM FEW270 M02/M06 A3051 RMK CI2 SLP339
ZBF CZBF Bathurst, CA Bathurst Airport 6 9 -3/-8 30.51 CZBF 050300Z AUTO 17006KT 9SM OVC055 M03/M08 A3051 RMK SLP338
YNA CYNA Natashquan, CA Natashquan Airport 5 9 -5/-11 30.50 CYNA 050300Z AUTO 23005KT 9SM FEW091 M05/M11 A3050 RMK SLP332
JOE EFJO Joensuu / Liperi, FI Joensuu Airport 5 -7/-8 30.50 EFJO 050320Z AUTO 02005KT CAVOK M07/M08 Q1033
JYV EFJY Jyväskylän Maalaiskunta, FI Jyvaskyla Airport 2 -9/-10 30.50 EFJY 050320Z AUTO VRB02KT CAVOK M09/M10 Q1033
SVL EFSA Savonlinna, FI Savonlinna Airport 1 -7/-8 30.50 EFSA 050320Z AUTO 06001KT CAVOK M07/M08 Q1033
SJY EFSI Seinäjoki / Ilmajoki, FI Seinäjoki Airport 2 -2/-3 30.50 EFSI 050320Z AUTO 05002KT 9999 FEW021 M02/M03 Q1033
LYC ESNL SE Lycksele Airport 0 -1/-4 30.50 ESNL 050320Z AUTO 00000KT 9999 FEW007/// OVC013/// M01/M04 Q1033
SDL ESNN Sundsvall/ Härnösand, SE Sundsvall-Härnösand Airport 1 1.43 0/-1 30.50 ESNN 050320Z AUTO 31001KT 2300 SG VV006 M00/M01 Q1033
OER ESNO Örnsköldsvik, SE Örnsköldsvik Airport 3 0/0 30.50 ESNO 050320Z AUTO 07003KT 030V110 9999 OVC003/// M00/M00 Q1033
CUZ SPZO Cusco, PE Alejandro Velasco Astete International Airport 4 11/8 30.50 SPZO 050330Z 28004KT 9999 SCT050 SCT080 11/08 Q1033 NOSIG RMK BIRD HAZARD RWY 10/28
BGR KBGR Bangor, US Bangor International Airport 3 2/-3 30.49 KBGR 050253Z 21003KT 10SM SCT040 02/M03 A3049 RMK AO2 SLP326 T00221033 56000
RKD KRKD Rockland, US Knox County Regional Airport 3 0/-1 30.49 KRKD 050256Z AUTO 04003KT 10SM BKN037 M01/M01 A3049 RMK AO2 SLP326 T10061011 56012 FZRANO $
YGP CYGP Gaspé, CA Gaspé (Michel-Pouliot) Airport 7 15 -3/-11 30.49 CYGP 050300Z 27007KT 15SM FEW055 M03/M11 A3049 RMK SC1 SLP328
PWM KPWM Portland, US Portland International Jetport 5 3/0 30.48 KPWM 050251Z 10005KT 10SM OVC020 04/01 A3048 RMK AO2 SLP321 T00390006 56014 $
LEW KLEW Auburn/Lewiston, US Auburn Lewiston Municipal Airport 0 3/1 30.48 KLEW 050256Z AUTO 00000KT 10SM OVC019 03/02 A3048 RMK AO2 SLP331 T00330017 58007
AUG KAUG Augusta, US Augusta State Airport 0 3/-1 30.48 KAUG 050324Z AUTO 00000KT 10SM OVC029 04/M01 A3048 RMK AO2 T00391011
KMLT Millinocket, US Millinocket Municipal Airport 0 2/-3 30.47 KMLT 050253Z AUTO 00000KT 10SM OVC030 03/M03 A3047 RMK AO2 SLP328 T00281033 50001
PES ULPB Petrozavodsk, RU Petrozavodsk Airport 4 -4/-7 30.47 ULPB 050300Z AUTO 36002MPS 9999 // NCD M04/M07 Q1032 RMK QFE770/1027
KEV EFHA Halli / Kuorevesi, FI Halli Airport 2 -4/-5 30.47 EFHA 050320Z AUTO VRB02KT 9999 BCFG NCD M04/M05 Q1032
MIK EFMI Mikkeli, FI Mikkeli Airport 1 -7/-8 30.47 EFMI 050320Z AUTO VRB01KT CAVOK M07/M08 Q1032
POR EFPO Pori, FI Pori Airport 5 1/-1 30.47 EFPO 050320Z AUTO 08005KT 050V110 9999 OVC014 //////CB 01/M01 Q1032
TMP EFTP Tampere / Pirkkala, FI Tampere-Pirkkala Airport 4 -2/-3 30.47 EFTP 050320Z AUTO 05004KT CAVOK M02/M03 Q1032
VHM ESNV SE Vilhelmina Airport 2 -1/-2 30.47 ESNV 050320Z AUTO 13002KT 9999 -SN OVC011/// M01/M02 Q1032 RESG